sensor_id;sensor_type;location;lat;lon;timestamp;P1;durP1;ratioP1;P2;durP2;ratioP2
20928;SDS011;21895;47.072;15.132;2023-02-12T00:01:18;19.67;;;7.20;;
20928;SDS011;21895;47.072;15.132;2023-02-12T00:03:47;19.87;;;6.47;;
20928;SDS011;21895;47.072;15.132;2023-02-12T00:06:14;19.03;;;6.33;;
20928;SDS011;21895;47.072;15.132;2023-02-12T00:08:41;15.63;;;5.60;;
20928;SDS011;21895;47.072;15.132;2023-02-12T00:11:12;20.57;;;6.57;;
20928;SDS011;21895;47.072;15.132;2023-02-12T00:13:41;17.90;;;6.17;;
20928;SDS011;21895;47.072;15.132;2023-02-12T00:16:13;16.33;;;7.00;;
20928;SDS011;21895;47.072;15.132;2023-02-12T00:18:43;17.53;;;6.63;;
20928;SDS011;21895;47.072;15.132;2023-02-12T00:21:10;18.13;;;6.63;;
20928;SDS011;21895;47.072;15.132;2023-02-12T00:23:38;16.47;;;6.43;;
20928;SDS011;21895;47.072;15.132;2023-02-12T00:26:15;18.77;;;6.87;;
20928;SDS011;21895;47.072;15.132;2023-02-12T00:28:44;18.60;;;6.40;;
20928;SDS011;21895;47.072;15.132;2023-02-12T00:31:12;16.20;;;6.37;;
20928;SDS011;21895;47.072;15.132;2023-02-12T00:33:45;19.37;;;6.27;;
20928;SDS011;21895;47.072;15.132;2023-02-12T00:36:19;20.13;;;7.40;;
20928;SDS011;21895;47.072;15.132;2023-02-12T00:38:49;18.27;;;6.77;;
20928;SDS011;21895;47.072;15.132;2023-02-12T00:41:18;18.13;;;6.63;;
20928;SDS011;21895;47.072;15.132;2023-02-12T00:43:46;37.37;;;12.57;;
20928;SDS011;21895;47.072;15.132;2023-02-12T00:46:14;40.77;;;13.13;;
20928;SDS011;21895;47.072;15.132;2023-02-12T00:48:41;34.07;;;12.70;;
20928;SDS011;21895;47.072;15.132;2023-02-12T00:51:08;23.20;;;9.43;;
20928;SDS011;21895;47.072;15.132;2023-02-12T00:53:34;18.73;;;7.20;;
20928;SDS011;21895;47.072;15.132;2023-02-12T00:56:02;26.83;;;8.43;;
20928;SDS011;21895;47.072;15.132;2023-02-12T00:58:29;33.93;;;11.90;;
20928;SDS011;21895;47.072;15.132;2023-02-12T01:00:55;36.97;;;12.97;;
20928;SDS011;21895;47.072;15.132;2023-02-12T01:03:22;42.93;;;14.83;;
20928;SDS011;21895;47.072;15.132;2023-02-12T01:05:49;40.40;;;14.87;;
20928;SDS011;21895;47.072;15.132;2023-02-12T01:08:16;43.90;;;15.57;;
20928;SDS011;21895;47.072;15.132;2023-02-12T01:10:43;51.43;;;18.13;;
20928;SDS011;21895;47.072;15.132;2023-02-12T01:13:11;56.17;;;17.43;;
20928;SDS011;21895;47.072;15.132;2023-02-12T01:15:40;44.23;;;14.97;;
20928;SDS011;21895;47.072;15.132;2023-02-12T01:18:07;42.83;;;15.03;;
20928;SDS011;21895;47.072;15.132;2023-02-12T01:20:33;41.80;;;14.63;;
20928;SDS011;21895;47.072;15.132;2023-02-12T01:23:00;33.47;;;12.97;;
20928;SDS011;21895;47.072;15.132;2023-02-12T01:25:26;38.67;;;12.60;;
20928;SDS011;21895;47.072;15.132;2023-02-12T01:27:53;33.10;;;11.77;;
20928;SDS011;21895;47.072;15.132;2023-02-12T01:30:19;35.90;;;12.23;;
20928;SDS011;21895;47.072;15.132;2023-02-12T01:32:48;31.10;;;11.67;;
20928;SDS011;21895;47.072;15.132;2023-02-12T01:35:15;33.43;;;10.13;;
20928;SDS011;21895;47.072;15.132;2023-02-12T01:37:41;19.17;;;8.40;;
20928;SDS011;21895;47.072;15.132;2023-02-12T01:40:08;22.90;;;8.13;;
20928;SDS011;21895;47.072;15.132;2023-02-12T01:42:39;19.30;;;8.00;;
20928;SDS011;21895;47.072;15.132;2023-02-12T01:48:54;20.67;;;7.60;;
20928;SDS011;21895;47.072;15.132;2023-02-12T01:51:20;15.27;;;6.67;;
20928;SDS011;21895;47.072;15.132;2023-02-12T01:53:52;20.83;;;7.23;;
20928;SDS011;21895;47.072;15.132;2023-02-12T01:56:23;22.03;;;8.33;;
20928;SDS011;21895;47.072;15.132;2023-02-12T01:58:50;19.30;;;7.40;;
20928;SDS011;21895;47.072;15.132;2023-02-12T02:01:26;24.77;;;7.87;;
20928;SDS011;21895;47.072;15.132;2023-02-12T02:04:01;24.93;;;9.10;;
20928;SDS011;21895;47.072;15.132;2023-02-12T02:06:39;25.20;;;10.83;;
20928;SDS011;21895;47.072;15.132;2023-02-12T02:10:59;41.33;;;13.07;;
20928;SDS011;21895;47.072;15.132;2023-02-12T02:13:26;39.40;;;14.00;;
20928;SDS011;21895;47.072;15.132;2023-02-12T02:16:17;33.50;;;11.17;;
20928;SDS011;21895;47.072;15.132;2023-02-12T02:19:19;22.17;;;8.23;;
20928;SDS011;21895;47.072;15.132;2023-02-12T02:30:04;27.70;;;8.63;;
20928;SDS011;21895;47.072;15.132;2023-02-12T02:36:39;28.50;;;10.33;;
20928;SDS011;21895;47.072;15.132;2023-02-12T02:43:37;37.03;;;11.63;;
20928;SDS011;21895;47.072;15.132;2023-02-12T02:46:35;40.57;;;13.33;;
20928;SDS011;21895;47.072;15.132;2023-02-12T02:49:19;28.97;;;10.73;;
20928;SDS011;21895;47.072;15.132;2023-02-12T02:52:00;28.47;;;8.87;;
20928;SDS011;21895;47.072;15.132;2023-02-12T02:54:40;25.73;;;8.97;;
20928;SDS011;21895;47.072;15.132;2023-02-12T02:57:14;21.67;;;8.77;;
20928;SDS011;21895;47.072;15.132;2023-02-12T03:04:22;24.90;;;9.53;;
20928;SDS011;21895;47.072;15.132;2023-02-12T03:06:59;27.47;;;9.63;;
20928;SDS011;21895;47.072;15.132;2023-02-12T03:10:46;20.83;;;9.00;;
20928;SDS011;21895;47.072;15.132;2023-02-12T03:13:21;33.97;;;12.13;;
20928;SDS011;21895;47.072;15.132;2023-02-12T03:16:03;29.97;;;11.10;;
20928;SDS011;21895;47.072;15.132;2023-02-12T03:18:41;31.60;;;11.17;;
20928;SDS011;21895;47.072;15.132;2023-02-12T03:21:25;24.63;;;10.13;;
20928;SDS011;21895;47.072;15.132;2023-02-12T03:24:19;30.03;;;10.67;;
20928;SDS011;21895;47.072;15.132;2023-02-12T03:27:07;32.63;;;11.63;;
20928;SDS011;21895;47.072;15.132;2023-02-12T03:29:40;30.93;;;12.27;;
20928;SDS011;21895;47.072;15.132;2023-02-12T03:37:30;28.33;;;10.13;;
20928;SDS011;21895;47.072;15.132;2023-02-12T03:40:11;19.57;;;8.00;;
20928;SDS011;21895;47.072;15.132;2023-02-12T03:43:01;20.87;;;8.97;;
20928;SDS011;21895;47.072;15.132;2023-02-12T03:46:07;30.90;;;9.80;;
20928;SDS011;21895;47.072;15.132;2023-02-12T03:49:09;25.27;;;9.47;;
20928;SDS011;21895;47.072;15.132;2023-02-12T03:51:46;20.70;;;8.93;;
20928;SDS011;21895;47.072;15.132;2023-02-12T03:54:13;18.13;;;7.60;;
20928;SDS011;21895;47.072;15.132;2023-02-12T03:56:45;20.10;;;8.30;;
20928;SDS011;21895;47.072;15.132;2023-02-12T03:59:30;21.40;;;8.40;;
20928;SDS011;21895;47.072;15.132;2023-02-12T04:02:00;22.10;;;9.07;;
20928;SDS011;21895;47.072;15.132;2023-02-12T04:04:28;23.77;;;8.87;;
20928;SDS011;21895;47.072;15.132;2023-02-12T04:06:56;21.57;;;7.97;;
20928;SDS011;21895;47.072;15.132;2023-02-12T04:09:23;21.20;;;8.07;;
20928;SDS011;21895;47.072;15.132;2023-02-12T04:12:05;22.77;;;8.27;;
20928;SDS011;21895;47.072;15.132;2023-02-12T04:15:10;21.10;;;8.30;;
20928;SDS011;21895;47.072;15.132;2023-02-12T04:18:18;25.23;;;8.83;;
20928;SDS011;21895;47.072;15.132;2023-02-12T04:21:00;31.87;;;10.17;;
20928;SDS011;21895;47.072;15.132;2023-02-12T04:25:08;34.40;;;11.03;;
20928;SDS011;21895;47.072;15.132;2023-02-12T04:29:27;37.27;;;11.77;;
20928;SDS011;21895;47.072;15.132;2023-02-12T04:32:29;25.33;;;9.13;;
20928;SDS011;21895;47.072;15.132;2023-02-12T04:35:25;27.77;;;10.03;;
20928;SDS011;21895;47.072;15.132;2023-02-12T04:38:10;32.27;;;10.57;;
20928;SDS011;21895;47.072;15.132;2023-02-12T04:40:51;27.63;;;10.07;;
20928;SDS011;21895;47.072;15.132;2023-02-12T04:43:25;25.57;;;9.40;;
20928;SDS011;21895;47.072;15.132;2023-02-12T04:46:02;40.33;;;10.03;;
20928;SDS011;21895;47.072;15.132;2023-02-12T04:48:31;38.77;;;11.37;;
20928;SDS011;21895;47.072;15.132;2023-02-12T04:50:59;27.17;;;10.57;;
20928;SDS011;21895;47.072;15.132;2023-02-12T04:53:26;33.10;;;11.17;;
20928;SDS011;21895;47.072;15.132;2023-02-12T04:55:53;28.90;;;10.10;;
20928;SDS011;21895;47.072;15.132;2023-02-12T04:58:20;21.67;;;9.07;;
20928;SDS011;21895;47.072;15.132;2023-02-12T05:00:46;26.77;;;10.10;;
20928;SDS011;21895;47.072;15.132;2023-02-12T05:03:13;25.70;;;9.50;;
20928;SDS011;21895;47.072;15.132;2023-02-12T05:05:39;29.70;;;10.13;;
20928;SDS011;21895;47.072;15.132;2023-02-12T05:08:06;17.73;;;7.27;;
20928;SDS011;21895;47.072;15.132;2023-02-12T05:10:32;23.77;;;7.77;;
20928;SDS011;21895;47.072;15.132;2023-02-12T05:12:59;17.90;;;6.97;;
20928;SDS011;21895;47.072;15.132;2023-02-12T05:15:25;22.17;;;8.73;;
20928;SDS011;21895;47.072;15.132;2023-02-12T05:17:52;22.80;;;8.37;;
20928;SDS011;21895;47.072;15.132;2023-02-12T05:20:18;24.47;;;8.47;;
20928;SDS011;21895;47.072;15.132;2023-02-12T05:22:45;20.10;;;7.83;;
20928;SDS011;21895;47.072;15.132;2023-02-12T05:25:16;24.20;;;8.30;;
20928;SDS011;21895;47.072;15.132;2023-02-12T05:27:42;28.33;;;9.03;;
20928;SDS011;21895;47.072;15.132;2023-02-12T05:30:09;22.53;;;8.63;;
20928;SDS011;21895;47.072;15.132;2023-02-12T05:32:36;22.33;;;7.20;;
20928;SDS011;21895;47.072;15.132;2023-02-12T05:35:03;34.57;;;7.63;;
20928;SDS011;21895;47.072;15.132;2023-02-12T05:37:32;21.37;;;8.83;;
20928;SDS011;21895;47.072;15.132;2023-02-12T05:40:02;22.77;;;8.47;;
20928;SDS011;21895;47.072;15.132;2023-02-12T05:42:30;21.37;;;7.70;;
20928;SDS011;21895;47.072;15.132;2023-02-12T05:44:57;27.60;;;9.53;;
20928;SDS011;21895;47.072;15.132;2023-02-12T05:47:23;23.23;;;9.00;;
20928;SDS011;21895;47.072;15.132;2023-02-12T05:49:50;27.10;;;8.87;;
20928;SDS011;21895;47.072;15.132;2023-02-12T05:52:16;27.43;;;9.73;;
20928;SDS011;21895;47.072;15.132;2023-02-12T05:54:43;31.70;;;9.20;;
20928;SDS011;21895;47.072;15.132;2023-02-12T05:57:09;29.90;;;9.70;;
20928;SDS011;21895;47.072;15.132;2023-02-12T05:59:36;24.80;;;9.13;;
20928;SDS011;21895;47.072;15.132;2023-02-12T06:02:02;28.80;;;10.37;;
20928;SDS011;21895;47.072;15.132;2023-02-12T06:04:29;21.90;;;7.70;;
20928;SDS011;21895;47.072;15.132;2023-02-12T06:06:55;19.60;;;7.70;;
20928;SDS011;21895;47.072;15.132;2023-02-12T06:09:22;21.93;;;7.70;;
20928;SDS011;21895;47.072;15.132;2023-02-12T06:11:49;17.40;;;7.37;;
20928;SDS011;21895;47.072;15.132;2023-02-12T06:14:17;14.97;;;6.67;;
20928;SDS011;21895;47.072;15.132;2023-02-12T06:16:45;14.30;;;6.70;;
20928;SDS011;21895;47.072;15.132;2023-02-12T06:19:15;18.23;;;6.90;;
20928;SDS011;21895;47.072;15.132;2023-02-12T06:21:42;19.37;;;6.77;;
20928;SDS011;21895;47.072;15.132;2023-02-12T06:24:12;18.07;;;6.60;;
20928;SDS011;21895;47.072;15.132;2023-02-12T06:26:40;15.40;;;6.33;;
20928;SDS011;21895;47.072;15.132;2023-02-12T06:29:07;18.27;;;6.60;;
20928;SDS011;21895;47.072;15.132;2023-02-12T06:31:35;17.90;;;6.77;;
20928;SDS011;21895;47.072;15.132;2023-02-12T06:34:04;17.47;;;7.17;;
20928;SDS011;21895;47.072;15.132;2023-02-12T06:36:35;18.50;;;7.20;;
20928;SDS011;21895;47.072;15.132;2023-02-12T06:39:04;15.97;;;6.93;;
20928;SDS011;21895;47.072;15.132;2023-02-12T06:41:31;19.03;;;6.80;;
20928;SDS011;21895;47.072;15.132;2023-02-12T06:43:58;22.37;;;7.10;;
20928;SDS011;21895;47.072;15.132;2023-02-12T06:46:25;21.37;;;7.47;;
20928;SDS011;21895;47.072;15.132;2023-02-12T06:48:52;23.37;;;7.87;;
20928;SDS011;21895;47.072;15.132;2023-02-12T06:51:21;17.73;;;7.33;;
20928;SDS011;21895;47.072;15.132;2023-02-12T06:53:49;20.50;;;8.27;;
20928;SDS011;21895;47.072;15.132;2023-02-12T06:56:18;20.27;;;8.47;;
20928;SDS011;21895;47.072;15.132;2023-02-12T06:58:52;18.30;;;7.80;;
20928;SDS011;21895;47.072;15.132;2023-02-12T07:01:22;23.57;;;8.37;;
20928;SDS011;21895;47.072;15.132;2023-02-12T07:03:54;25.47;;;8.63;;
20928;SDS011;21895;47.072;15.132;2023-02-12T07:06:24;26.50;;;10.43;;
20928;SDS011;21895;47.072;15.132;2023-02-12T07:08:52;32.00;;;11.20;;
20928;SDS011;21895;47.072;15.132;2023-02-12T07:11:27;32.60;;;12.00;;
20928;SDS011;21895;47.072;15.132;2023-02-12T07:13:56;19.40;;;8.27;;
20928;SDS011;21895;47.072;15.132;2023-02-12T07:16:23;26.83;;;8.77;;
20928;SDS011;21895;47.072;15.132;2023-02-12T07:18:52;20.70;;;9.27;;
20928;SDS011;21895;47.072;15.132;2023-02-12T07:21:19;28.57;;;10.03;;
20928;SDS011;21895;47.072;15.132;2023-02-12T07:23:47;26.27;;;10.43;;
20928;SDS011;21895;47.072;15.132;2023-02-12T07:26:17;22.83;;;10.63;;
20928;SDS011;21895;47.072;15.132;2023-02-12T07:28:45;32.53;;;12.43;;
20928;SDS011;21895;47.072;15.132;2023-02-12T07:31:19;36.80;;;13.33;;
20928;SDS011;21895;47.072;15.132;2023-02-12T07:33:48;32.67;;;13.10;;
20928;SDS011;21895;47.072;15.132;2023-02-12T07:36:19;38.73;;;14.90;;
20928;SDS011;21895;47.072;15.132;2023-02-12T07:38:47;43.50;;;16.53;;
20928;SDS011;21895;47.072;15.132;2023-02-12T07:41:15;45.80;;;15.33;;
20928;SDS011;21895;47.072;15.132;2023-02-12T07:43:51;41.20;;;14.23;;
20928;SDS011;21895;47.072;15.132;2023-02-12T07:46:22;46.73;;;15.17;;
20928;SDS011;21895;47.072;15.132;2023-02-12T07:48:55;34.17;;;13.50;;
20928;SDS011;21895;47.072;15.132;2023-02-12T07:51:24;35.60;;;13.13;;
20928;SDS011;21895;47.072;15.132;2023-02-12T07:53:52;32.20;;;12.93;;
20928;SDS011;21895;47.072;15.132;2023-02-12T07:56:23;35.43;;;14.07;;
20928;SDS011;21895;47.072;15.132;2023-02-12T07:58:55;40.00;;;15.00;;
20928;SDS011;21895;47.072;15.132;2023-02-12T08:01:24;44.90;;;14.83;;
20928;SDS011;21895;47.072;15.132;2023-02-12T08:03:59;42.17;;;14.30;;
20928;SDS011;21895;47.072;15.132;2023-02-12T08:06:48;34.10;;;13.60;;
20928;SDS011;21895;47.072;15.132;2023-02-12T08:09:20;35.40;;;12.90;;
20928;SDS011;21895;47.072;15.132;2023-02-12T08:11:50;43.57;;;14.07;;
20928;SDS011;21895;47.072;15.132;2023-02-12T08:14:18;30.37;;;13.30;;
20928;SDS011;21895;47.072;15.132;2023-02-12T08:16:46;48.67;;;17.13;;
20928;SDS011;21895;47.072;15.132;2023-02-12T08:19:15;39.60;;;14.90;;
20928;SDS011;21895;47.072;15.132;2023-02-12T08:21:52;32.77;;;12.33;;
20928;SDS011;21895;47.072;15.132;2023-02-12T08:24:22;30.90;;;13.47;;
20928;SDS011;21895;47.072;15.132;2023-02-12T08:26:49;34.73;;;13.53;;
20928;SDS011;21895;47.072;15.132;2023-02-12T08:29:18;44.80;;;17.30;;
20928;SDS011;21895;47.072;15.132;2023-02-12T08:31:54;42.87;;;18.27;;
20928;SDS011;21895;47.072;15.132;2023-02-12T08:34:27;42.80;;;18.90;;
20928;SDS011;21895;47.072;15.132;2023-02-12T08:36:57;36.57;;;15.97;;
20928;SDS011;21895;47.072;15.132;2023-02-12T08:39:24;36.40;;;15.23;;
20928;SDS011;21895;47.072;15.132;2023-02-12T08:41:54;37.07;;;15.23;;
20928;SDS011;21895;47.072;15.132;2023-02-12T08:44:22;36.37;;;15.90;;
20928;SDS011;21895;47.072;15.132;2023-02-12T08:46:50;30.60;;;13.00;;
20928;SDS011;21895;47.072;15.132;2023-02-12T08:49:21;27.63;;;12.03;;
20928;SDS011;21895;47.072;15.132;2023-02-12T08:51:51;32.93;;;12.23;;
20928;SDS011;21895;47.072;15.132;2023-02-12T08:54:22;26.60;;;12.20;;
20928;SDS011;21895;47.072;15.132;2023-02-12T08:56:54;30.00;;;11.93;;
20928;SDS011;21895;47.072;15.132;2023-02-12T08:59:23;28.57;;;11.23;;
20928;SDS011;21895;47.072;15.132;2023-02-12T09:01:50;25.87;;;10.53;;
20928;SDS011;21895;47.072;15.132;2023-02-12T09:04:19;26.93;;;8.60;;
20928;SDS011;21895;47.072;15.132;2023-02-12T09:06:48;23.37;;;8.90;;
20928;SDS011;21895;47.072;15.132;2023-02-12T09:09:15;19.97;;;8.70;;
20928;SDS011;21895;47.072;15.132;2023-02-12T09:11:44;19.97;;;8.47;;
20928;SDS011;21895;47.072;15.132;2023-02-12T09:14:11;17.13;;;7.20;;
20928;SDS011;21895;47.072;15.132;2023-02-12T09:16:40;17.20;;;7.53;;
20928;SDS011;21895;47.072;15.132;2023-02-12T09:19:09;22.00;;;8.10;;
20928;SDS011;21895;47.072;15.132;2023-02-12T09:21:38;24.10;;;7.60;;
20928;SDS011;21895;47.072;15.132;2023-02-12T09:24:05;17.23;;;7.43;;
20928;SDS011;21895;47.072;15.132;2023-02-12T09:26:31;15.10;;;8.10;;
20928;SDS011;21895;47.072;15.132;2023-02-12T09:28:58;16.27;;;7.73;;
20928;SDS011;21895;47.072;15.132;2023-02-12T09:31:29;17.23;;;7.00;;
20928;SDS011;21895;47.072;15.132;2023-02-12T09:33:58;13.80;;;6.60;;
20928;SDS011;21895;47.072;15.132;2023-02-12T09:36:31;19.27;;;5.90;;
20928;SDS011;21895;47.072;15.132;2023-02-12T09:38:58;15.70;;;6.83;;
20928;SDS011;21895;47.072;15.132;2023-02-12T09:41:36;16.03;;;7.07;;
20928;SDS011;21895;47.072;15.132;2023-02-12T09:53:26;11.47;;;5.87;;
20928;SDS011;21895;47.072;15.132;2023-02-12T09:55:57;13.13;;;5.83;;
20928;SDS011;21895;47.072;15.132;2023-02-12T10:01:19;12.03;;;5.83;;
20928;SDS011;21895;47.072;15.132;2023-02-12T10:03:48;12.03;;;5.33;;
20928;SDS011;21895;47.072;15.132;2023-02-12T10:06:20;13.60;;;6.07;;
20928;SDS011;21895;47.072;15.132;2023-02-12T10:14:50;15.17;;;5.67;;
20928;SDS011;21895;47.072;15.132;2023-02-12T10:17:47;12.70;;;6.23;;
20928;SDS011;21895;47.072;15.132;2023-02-12T10:22:05;13.70;;;5.90;;
20928;SDS011;21895;47.072;15.132;2023-02-12T10:29:45;16.80;;;6.60;;
20928;SDS011;21895;47.072;15.132;2023-02-12T10:32:25;11.50;;;5.73;;
20928;SDS011;21895;47.072;15.132;2023-02-12T10:34:57;10.87;;;4.83;;
20928;SDS011;21895;47.072;15.132;2023-02-12T10:37:34;13.17;;;4.27;;
20928;SDS011;21895;47.072;15.132;2023-02-12T10:40:23;5.87;;;2.87;;
20928;SDS011;21895;47.072;15.132;2023-02-12T10:42:55;4.70;;;2.53;;
20928;SDS011;21895;47.072;15.132;2023-02-12T10:45:29;5.57;;;2.97;;
20928;SDS011;21895;47.072;15.132;2023-02-12T10:48:12;6.53;;;2.70;;
20928;SDS011;21895;47.072;15.132;2023-02-12T10:52:23;6.63;;;2.30;;
20928;SDS011;21895;47.072;15.132;2023-02-12T10:55:22;6.63;;;2.50;;
20928;SDS011;21895;47.072;15.132;2023-02-12T10:57:55;6.07;;;3.13;;
20928;SDS011;21895;47.072;15.132;2023-02-12T11:00:26;6.70;;;3.20;;
20928;SDS011;21895;47.072;15.132;2023-02-12T11:06:11;5.53;;;3.10;;
20928;SDS011;21895;47.072;15.132;2023-02-12T11:08:42;4.97;;;2.57;;
20928;SDS011;21895;47.072;15.132;2023-02-12T11:11:10;6.57;;;2.47;;
20928;SDS011;21895;47.072;15.132;2023-02-12T11:13:46;5.00;;;2.57;;
20928;SDS011;21895;47.072;15.132;2023-02-12T11:16:34;4.30;;;2.57;;
20928;SDS011;21895;47.072;15.132;2023-02-12T11:19:23;4.37;;;2.53;;
20928;SDS011;21895;47.072;15.132;2023-02-12T11:22:04;3.37;;;2.03;;
20928;SDS011;21895;47.072;15.132;2023-02-12T11:24:39;4.63;;;1.80;;
20928;SDS011;21895;47.072;15.132;2023-02-12T11:32:14;3.67;;;1.80;;
20928;SDS011;21895;47.072;15.132;2023-02-12T11:34:52;4.03;;;1.70;;
20928;SDS011;21895;47.072;15.132;2023-02-12T11:37:53;4.23;;;1.77;;
20928;SDS011;21895;47.072;15.132;2023-02-12T11:43:05;2.53;;;1.70;;
20928;SDS011;21895;47.072;15.132;2023-02-12T11:48:44;2.53;;;1.70;;
20928;SDS011;21895;47.072;15.132;2023-02-12T11:51:17;2.83;;;1.60;;
20928;SDS011;21895;47.072;15.132;2023-02-12T11:53:50;2.53;;;1.73;;
20928;SDS011;21895;47.072;15.132;2023-02-12T11:56:20;2.33;;;1.40;;
20928;SDS011;21895;47.072;15.132;2023-02-12T11:58:48;4.37;;;1.83;;
20928;SDS011;21895;47.072;15.132;2023-02-12T12:04:07;3.10;;;1.80;;
20928;SDS011;21895;47.072;15.132;2023-02-12T12:06:40;2.40;;;1.30;;
20928;SDS011;21895;47.072;15.132;2023-02-12T12:09:23;1.53;;;1.00;;
20928;SDS011;21895;47.072;15.132;2023-02-12T12:12:22;2.23;;;1.00;;
20928;SDS011;21895;47.072;15.132;2023-02-12T12:15:04;2.40;;;1.00;;
20928;SDS011;21895;47.072;15.132;2023-02-12T12:25:42;0.60;;;0.50;;
20928;SDS011;21895;47.072;15.132;2023-02-12T12:28:36;0.70;;;0.70;;
20928;SDS011;21895;47.072;15.132;2023-02-12T12:31:52;0.70;;;0.60;;
20928;SDS011;21895;47.072;15.132;2023-02-12T12:34:27;0.67;;;0.53;;
20928;SDS011;21895;47.072;15.132;2023-02-12T12:40:35;0.80;;;0.70;;
20928;SDS011;21895;47.072;15.132;2023-02-12T12:43:48;0.77;;;0.50;;
20928;SDS011;21895;47.072;15.132;2023-02-12T12:52:49;0.30;;;0.30;;
20928;SDS011;21895;47.072;15.132;2023-02-12T12:56:02;1.07;;;0.50;;
20928;SDS011;21895;47.072;15.132;2023-02-12T12:59:27;0.40;;;0.40;;
20928;SDS011;21895;47.072;15.132;2023-02-12T13:10:31;0.40;;;0.40;;
20928;SDS011;21895;47.072;15.132;2023-02-12T13:13:23;0.40;;;0.40;;
20928;SDS011;21895;47.072;15.132;2023-02-12T13:16:39;0.63;;;0.50;;
20928;SDS011;21895;47.072;15.132;2023-02-12T13:19:16;1.60;;;0.40;;
20928;SDS011;21895;47.072;15.132;2023-02-12T13:23:35;0.43;;;0.43;;
20928;SDS011;21895;47.072;15.132;2023-02-12T13:26:47;0.50;;;0.50;;
20928;SDS011;21895;47.072;15.132;2023-02-12T13:29:23;0.33;;;0.33;;
20928;SDS011;21895;47.072;15.132;2023-02-12T13:32:06;0.50;;;0.50;;
20928;SDS011;21895;47.072;15.132;2023-02-12T13:34:46;1.97;;;0.47;;
20928;SDS011;21895;47.072;15.132;2023-02-12T13:37:16;0.50;;;0.50;;
20928;SDS011;21895;47.072;15.132;2023-02-12T13:40:18;0.40;;;0.40;;
20928;SDS011;21895;47.072;15.132;2023-02-12T13:49:25;0.50;;;0.50;;
20928;SDS011;21895;47.072;15.132;2023-02-12T13:53:18;1.13;;;0.50;;
20928;SDS011;21895;47.072;15.132;2023-02-12T13:57:24;0.30;;;0.30;;
20928;SDS011;21895;47.072;15.132;2023-02-12T13:59:51;0.57;;;0.43;;
20928;SDS011;21895;47.072;15.132;2023-02-12T14:05:20;1.07;;;0.90;;
20928;SDS011;21895;47.072;15.132;2023-02-12T14:07:58;1.13;;;0.80;;
20928;SDS011;21895;47.072;15.132;2023-02-12T14:10:40;0.40;;;0.30;;
20928;SDS011;21895;47.072;15.132;2023-02-12T14:18:43;0.40;;;0.40;;
20928;SDS011;21895;47.072;15.132;2023-02-12T14:24:45;4.07;;;1.20;;
20928;SDS011;21895;47.072;15.132;2023-02-12T14:33:17;4.40;;;1.70;;
20928;SDS011;21895;47.072;15.132;2023-02-12T14:36:11;4.60;;;1.53;;
20928;SDS011;21895;47.072;15.132;2023-02-12T14:42:40;2.10;;;1.57;;
20928;SDS011;21895;47.072;15.132;2023-02-12T14:45:25;3.10;;;1.37;;
20928;SDS011;21895;47.072;15.132;2023-02-12T14:48:00;3.23;;;1.70;;
20928;SDS011;21895;47.072;15.132;2023-02-12T14:50:42;1.67;;;1.33;;
20928;SDS011;21895;47.072;15.132;2023-02-12T14:53:33;1.73;;;1.30;;
20928;SDS011;21895;47.072;15.132;2023-02-12T14:56:03;2.73;;;1.60;;
20928;SDS011;21895;47.072;15.132;2023-02-12T14:58:33;4.13;;;1.40;;
20928;SDS011;21895;47.072;15.132;2023-02-12T15:01:02;8.70;;;1.60;;
20928;SDS011;21895;47.072;15.132;2023-02-12T15:03:40;2.13;;;1.33;;
20928;SDS011;21895;47.072;15.132;2023-02-12T15:06:16;1.13;;;1.00;;
20928;SDS011;21895;47.072;15.132;2023-02-12T15:08:53;1.97;;;1.30;;
20928;SDS011;21895;47.072;15.132;2023-02-12T15:11:32;4.07;;;2.10;;
20928;SDS011;21895;47.072;15.132;2023-02-12T15:14:22;5.17;;;1.70;;
20928;SDS011;21895;47.072;15.132;2023-02-12T15:20:00;4.77;;;1.77;;
20928;SDS011;21895;47.072;15.132;2023-02-12T15:23:25;2.03;;;1.37;;
20928;SDS011;21895;47.072;15.132;2023-02-12T15:26:17;2.10;;;1.30;;
20928;SDS011;21895;47.072;15.132;2023-02-12T15:28:56;1.40;;;1.10;;
20928;SDS011;21895;47.072;15.132;2023-02-12T15:31:25;3.30;;;1.00;;
20928;SDS011;21895;47.072;15.132;2023-02-12T15:33:56;1.40;;;1.07;;
20928;SDS011;21895;47.072;15.132;2023-02-12T15:36:26;1.83;;;0.80;;
20928;SDS011;21895;47.072;15.132;2023-02-12T15:39:04;2.83;;;0.93;;
20928;SDS011;21895;47.072;15.132;2023-02-12T15:41:37;1.27;;;0.70;;
20928;SDS011;21895;47.072;15.132;2023-02-12T15:48:28;1.23;;;0.80;;
20928;SDS011;21895;47.072;15.132;2023-02-12T15:51:03;1.40;;;1.07;;
20928;SDS011;21895;47.072;15.132;2023-02-12T15:53:50;4.77;;;1.60;;
20928;SDS011;21895;47.072;15.132;2023-02-12T15:56:20;6.73;;;1.60;;
20928;SDS011;21895;47.072;15.132;2023-02-12T15:58:50;3.10;;;1.40;;
20928;SDS011;21895;47.072;15.132;2023-02-12T16:01:23;10.50;;;1.67;;
20928;SDS011;21895;47.072;15.132;2023-02-12T16:03:55;8.20;;;1.47;;
20928;SDS011;21895;47.072;15.132;2023-02-12T16:06:26;4.47;;;1.53;;
20928;SDS011;21895;47.072;15.132;2023-02-12T16:08:58;2.83;;;1.67;;
20928;SDS011;21895;47.072;15.132;2023-02-12T16:11:32;3.67;;;1.37;;
20928;SDS011;21895;47.072;15.132;2023-02-12T16:14:01;6.73;;;1.77;;
20928;SDS011;21895;47.072;15.132;2023-02-12T16:16:47;4.70;;;1.50;;
20928;SDS011;21895;47.072;15.132;2023-02-12T16:22:05;21.07;;;8.17;;
20928;SDS011;21895;47.072;15.132;2023-02-12T16:24:44;20.43;;;8.67;;
20928;SDS011;21895;47.072;15.132;2023-02-12T16:27:18;25.33;;;11.13;;
20928;SDS011;21895;47.072;15.132;2023-02-12T16:29:55;29.23;;;12.73;;
20928;SDS011;21895;47.072;15.132;2023-02-12T16:32:33;29.97;;;12.17;;
20928;SDS011;21895;47.072;15.132;2023-02-12T16:35:25;34.17;;;13.77;;
20928;SDS011;21895;47.072;15.132;2023-02-12T16:37:59;31.90;;;12.50;;
20928;SDS011;21895;47.072;15.132;2023-02-12T16:41:24;31.43;;;10.17;;
20928;SDS011;21895;47.072;15.132;2023-02-12T16:46:58;31.27;;;11.37;;
20928;SDS011;21895;47.072;15.132;2023-02-12T16:49:26;42.43;;;11.83;;
20928;SDS011;21895;47.072;15.132;2023-02-12T16:51:53;32.23;;;10.77;;
20928;SDS011;21895;47.072;15.132;2023-02-12T16:54:55;25.33;;;10.10;;
20928;SDS011;21895;47.072;15.132;2023-02-12T16:57:22;27.17;;;10.37;;
20928;SDS011;21895;47.072;15.132;2023-02-12T16:59:48;27.37;;;8.33;;
20928;SDS011;21895;47.072;15.132;2023-02-12T17:02:15;36.40;;;8.77;;
20928;SDS011;21895;47.072;15.132;2023-02-12T17:04:41;25.33;;;8.63;;
20928;SDS011;21895;47.072;15.132;2023-02-12T17:07:11;21.47;;;7.80;;
20928;SDS011;21895;47.072;15.132;2023-02-12T17:09:47;25.70;;;7.73;;
20928;SDS011;21895;47.072;15.132;2023-02-12T17:12:14;20.57;;;8.17;;
20928;SDS011;21895;47.072;15.132;2023-02-12T17:14:41;27.57;;;7.87;;
20928;SDS011;21895;47.072;15.132;2023-02-12T17:17:08;20.90;;;7.13;;
20928;SDS011;21895;47.072;15.132;2023-02-12T17:19:34;23.17;;;7.77;;
20928;SDS011;21895;47.072;15.132;2023-02-12T17:22:01;19.70;;;7.43;;
20928;SDS011;21895;47.072;15.132;2023-02-12T17:24:31;16.23;;;5.73;;
20928;SDS011;21895;47.072;15.132;2023-02-12T17:27:01;18.83;;;6.37;;
20928;SDS011;21895;47.072;15.132;2023-02-12T17:29:27;27.53;;;8.33;;
20928;SDS011;21895;47.072;15.132;2023-02-12T17:31:55;22.10;;;7.10;;
20928;SDS011;21895;47.072;15.132;2023-02-12T17:34:22;19.07;;;6.20;;